Time;durP1;ratioP1;P1;durP2;ratioP2;P2;SDS_P1;SDS_P2;PMS_P1;PMS_P2;Temp;Humidity;BMP_temperature;BMP_pressure;BME280_temperature;BME280_humidity;BME280_pressure;Samples;Min_cycle;Max_cycle;Signal;HPM_P1;HPM_P2
2021/09/08 00:00:11;;;;;;;;;;;17.70;52.30;;;;;;5045925;28;83103;-45
2021/09/08 00:02:37;;;;;;;;;;;17.70;52.40;;;;;;5045630;28;82085;-46
2021/09/08 00:05:03;;;;;;;;;;;17.70;52.40;;;;;;5045491;28;82995;-45
2021/09/08 00:07:28;;;;;;;;;;;17.70;52.40;;;;;;5045290;28;84650;-45
2021/09/08 00:09:54;;;;;;;;;;;17.70;52.40;;;;;;5046272;28;83170;-45
2021/09/08 00:12:19;;;;;;;;;;;17.70;52.40;;;;;;5042880;28;83013;-45
2021/09/08 00:14:45;;;;;;;;;;;17.60;52.40;;;;;;5042751;28;82451;-44
2021/09/08 00:17:11;;;;;;;;;;;17.70;52.40;;;;;;5045198;28;82140;-45
2021/09/08 00:19:36;;;;;;;;;;;17.60;52.40;;;;;;5043317;28;83071;-45
2021/09/08 00:22:02;;;;;;;;;;;17.70;52.40;;;;;;5045250;28;81352;-44
2021/09/08 00:24:27;;;;;;;;;;;17.60;52.50;;;;;;5045718;28;82758;-45
2021/09/08 00:26:53;;;;;;;;;;;17.60;52.50;;;;;;5044265;28;83696;-44
2021/09/08 00:29:18;;;;;;;;;;;17.60;52.50;;;;;;5040789;28;83026;-44
2021/09/08 00:31:44;;;;;;;;;;;17.60;52.50;;;;;;5041317;28;84521;-45
2021/09/08 00:34:09;;;;;;;;;;;17.60;52.50;;;;;;5043218;28;83814;-44
2021/09/08 00:36:35;;;;;;;;;;;17.60;52.60;;;;;;5045999;28;82079;-44
2021/09/08 00:39:00;;;;;;;;;;;17.50;52.50;;;;;;5048261;28;83078;-45
2021/09/08 00:41:29;;;;;;;;;;;17.50;52.60;;;;;;5042158;28;82940;-45
2021/09/08 00:43:54;;;;;;;;;;;17.50;52.70;;;;;;5043800;28;82059;-45
2021/09/08 00:46:20;;;;;;;;;;;17.50;52.60;;;;;;5043474;28;81926;-44
2021/09/08 00:48:45;;;;;;;;;;;17.50;52.60;;;;;;5042995;28;82173;-45
2021/09/08 00:51:11;;;;;;;;;;;17.50;52.60;;;;;;5044095;28;84225;-45
2021/09/08 00:53:38;;;;;;;;;;;17.50;52.60;;;;;;5043814;28;85356;-45
2021/09/08 00:56:04;;;;;;;;;;;17.40;52.60;;;;;;5043408;28;82147;-45
2021/09/08 00:58:31;;;;;;;;;;;17.40;52.70;;;;;;5043848;28;84254;-45
2021/09/08 01:00:56;;;;;;;;;;;17.40;52.70;;;;;;5045824;28;82926;-45
2021/09/08 01:03:22;;;;;;;;;;;17.40;52.70;;;;;;5044256;28;83857;-45
2021/09/08 01:05:48;;;;;;;;;;;17.40;52.70;;;;;;5045728;28;82202;-45
2021/09/08 01:08:13;;;;;;;;;;;17.40;52.70;;;;;;5045206;27;82062;-44
2021/09/08 01:10:39;;;;;;;;;;;17.40;52.70;;;;;;5046278;28;82599;-44
2021/09/08 01:13:05;;;;;;;;;;;17.40;52.70;;;;;;5044596;28;82422;-46
2021/09/08 01:15:31;;;;;;;;;;;17.30;52.70;;;;;;5043056;28;82110;-44
2021/09/08 01:17:56;;;;;;;;;;;17.30;52.80;;;;;;5042926;28;83034;-45
2021/09/08 01:20:22;;;;;;;;;;;17.30;52.80;;;;;;5043458;28;82475;-44
2021/09/08 01:22:48;;;;;;;;;;;17.30;52.80;;;;;;5047247;28;82074;-45
2021/09/08 01:25:18;;;;;;;;;;;17.30;52.80;;;;;;5044139;28;84491;-45
2021/09/08 01:27:43;;;;;;;;;;;17.30;52.80;;;;;;5040471;28;82043;-45
2021/09/08 01:30:09;;;;;;;;;;;17.30;52.90;;;;;;5041422;28;84024;-45
2021/09/08 01:32:35;;;;;;;;;;;17.30;52.90;;;;;;5041985;28;83203;-44
2021/09/08 01:35:00;;;;;;;;;;;17.30;53.40;;;;;;5043844;28;81374;-45
2021/09/08 01:37:26;;;;;;;;;;;17.30;52.80;;;;;;5044613;28;82200;-44
2021/09/08 01:39:52;;;;;;;;;;;17.30;52.70;;;;;;5043791;28;82505;-45
2021/09/08 01:42:17;;;;;;;;;;;17.30;52.70;;;;;;5043131;28;83046;-45
2021/09/08 01:44:45;;;;;;;;;;;17.30;52.70;;;;;;5047583;28;83524;-44
2021/09/08 01:47:11;;;;;;;;;;;17.20;52.80;;;;;;5042777;28;82103;-44
2021/09/08 01:49:37;;;;;;;;;;;17.20;52.80;;;;;;5043589;28;82077;-45
2021/09/08 01:52:03;;;;;;;;;;;17.20;52.80;;;;;;5044052;28;84700;-45
2021/09/08 01:54:28;;;;;;;;;;;17.20;52.80;;;;;;5044574;28;82845;-45
2021/09/08 01:56:54;;;;;;;;;;;17.20;52.70;;;;;;5041096;28;82743;-45
2021/09/08 01:59:19;;;;;;;;;;;17.20;52.80;;;;;;5041077;28;82506;-44
2021/09/08 02:01:45;;;;;;;;;;;17.20;52.80;;;;;;5042024;28;82149;-45
2021/09/08 02:04:11;;;;;;;;;;;17.10;53.50;;;;;;5045510;28;83667;-45
2021/09/08 02:06:46;;;;;;;;;;;17.10;52.90;;;;;;5042329;28;83013;-45
2021/09/08 02:09:12;;;;;;;;;;;17.20;52.90;;;;;;5043939;28;84300;-45
2021/09/08 02:11:37;;;;;;;;;;;17.10;52.90;;;;;;5042885;28;83619;-45
2021/09/08 02:14:03;;;;;;;;;;;17.10;52.80;;;;;;5039900;28;83657;-45
2021/09/08 02:16:29;;;;;;;;;;;17.10;52.80;;;;;;5041573;28;83721;-45
2021/09/08 02:18:54;;;;;;;;;;;17.10;52.90;;;;;;5039993;28;83526;-45
2021/09/08 02:21:20;;;;;;;;;;;17.10;52.90;;;;;;5040569;27;82103;-44
2021/09/08 02:23:46;;;;;;;;;;;17.10;52.90;;;;;;5043036;28;82581;-44
2021/09/08 02:26:11;;;;;;;;;;;17.00;53.00;;;;;;5045502;28;84467;-44
2021/09/08 02:28:37;;;;;;;;;;;17.00;52.90;;;;;;5044120;28;82628;-44
2021/09/08 02:31:03;;;;;;;;;;;17.00;52.90;;;;;;5041404;28;84589;-44
2021/09/08 02:33:28;;;;;;;;;;;17.00;53.10;;;;;;5039450;28;82162;-45
2021/09/08 02:35:54;;;;;;;;;;;17.00;53.00;;;;;;5040863;28;82186;-44
2021/09/08 02:38:19;;;;;;;;;;;17.00;53.00;;;;;;5041927;28;82852;-45
2021/09/08 02:40:45;;;;;;;;;;;17.00;53.10;;;;;;5043352;28;82087;-45
2021/09/08 02:43:10;;;;;;;;;;;17.00;53.10;;;;;;5043272;28;84053;-44
2021/09/08 02:45:36;;;;;;;;;;;17.00;53.10;;;;;;5040041;28;83615;-45
2021/09/08 02:48:01;;;;;;;;;;;16.90;53.10;;;;;;5043476;28;81338;-45
2021/09/08 02:50:27;;;;;;;;;;;17.00;53.10;;;;;;5041114;28;83004;-44
2021/09/08 02:52:52;;;;;;;;;;;16.90;53.00;;;;;;5041192;28;82121;-44
2021/09/08 02:55:18;;;;;;;;;;;16.90;53.10;;;;;;5041762;28;83058;-45
2021/09/08 02:57:43;;;;;;;;;;;16.90;53.20;;;;;;5043279;28;84976;-45
2021/09/08 03:00:09;;;;;;;;;;;16.90;53.20;;;;;;5042202;28;82275;-45
2021/09/08 03:02:35;;;;;;;;;;;16.90;53.20;;;;;;5039540;28;82905;-44
2021/09/08 03:05:00;;;;;;;;;;;16.80;53.30;;;;;;5039791;28;84381;-45
2021/09/08 03:07:26;;;;;;;;;;;16.80;53.30;;;;;;5041127;28;82104;-44
2021/09/08 03:09:51;;;;;;;;;;;16.80;53.30;;;;;;5043066;28;82466;-44
2021/09/08 03:12:17;;;;;;;;;;;16.80;53.40;;;;;;5041321;28;81334;-45
2021/09/08 03:14:43;;;;;;;;;;;16.70;54.00;;;;;;5041404;28;83519;-44
2021/09/08 03:17:08;;;;;;;;;;;16.70;53.30;;;;;;5041414;28;83380;-44
2021/09/08 03:19:35;;;;;;;;;;;16.70;53.30;;;;;;5040708;28;83062;-44
2021/09/08 03:22:00;;;;;;;;;;;16.70;53.40;;;;;;5039021;28;84404;-44
2021/09/08 03:24:26;;;;;;;;;;;16.70;53.40;;;;;;5039220;28;82896;-44
2021/09/08 03:26:52;;;;;;;;;;;16.70;53.50;;;;;;5038661;28;82058;-45
2021/09/08 03:29:17;;;;;;;;;;;16.70;53.40;;;;;;5040598;28;83028;-44
2021/09/08 03:31:43;;;;;;;;;;;16.70;53.40;;;;;;5045508;27;84384;-44
2021/09/08 03:34:08;;;;;;;;;;;16.70;53.50;;;;;;5042599;28;83849;-45
2021/09/08 03:36:34;;;;;;;;;;;16.70;53.50;;;;;;5043513;28;82471;-44
2021/09/08 03:38:59;;;;;;;;;;;16.70;53.50;;;;;;5043603;28;82112;-44
2021/09/08 03:41:25;;;;;;;;;;;16.60;53.40;;;;;;5043232;28;82147;-44
2021/09/08 03:43:50;;;;;;;;;;;16.70;53.50;;;;;;5043532;28;83183;-44
2021/09/08 03:46:16;;;;;;;;;;;16.60;53.50;;;;;;5045448;28;82125;-44
2021/09/08 03:48:41;;;;;;;;;;;16.60;53.50;;;;;;5046935;28;82281;-44
2021/09/08 03:51:10;;;;;;;;;;;16.60;53.60;;;;;;5043640;28;83284;-45
2021/09/08 03:53:36;;;;;;;;;;;16.50;53.70;;;;;;5047611;28;82104;-44
2021/09/08 03:56:01;;;;;;;;;;;16.50;53.60;;;;;;5045786;28;83053;-44
2021/09/08 03:58:27;;;;;;;;;;;16.50;53.70;;;;;;5046542;28;83279;-45
2021/09/08 04:00:52;;;;;;;;;;;16.50;53.60;;;;;;5043638;28;82470;-45
2021/09/08 04:03:18;;;;;;;;;;;16.50;53.60;;;;;;5042472;28;83040;-44
2021/09/08 04:05:44;;;;;;;;;;;16.50;53.70;;;;;;5043903;28;82103;-44
2021/09/08 04:08:09;;;;;;;;;;;16.50;53.70;;;;;;5044410;28;83059;-44
2021/09/08 04:10:35;;;;;;;;;;;16.50;53.70;;;;;;5046115;28;82869;-44
2021/09/08 04:13:00;;;;;;;;;;;16.50;53.70;;;;;;5048794;28;82095;-44
2021/09/08 04:15:26;;;;;;;;;;;16.40;53.60;;;;;;5045063;28;84301;-44
2021/09/08 04:17:51;;;;;;;;;;;16.50;53.80;;;;;;5044707;28;82095;-44
2021/09/08 04:20:17;;;;;;;;;;;16.40;53.70;;;;;;5043748;28;84095;-44
2021/09/08 04:22:42;;;;;;;;;;;16.40;53.80;;;;;;5044134;28;82773;-44
2021/09/08 04:25:08;;;;;;;;;;;16.40;53.80;;;;;;5045570;28;81467;-44
2021/09/08 04:27:34;;;;;;;;;;;16.40;53.90;;;;;;5046231;28;82099;-44
2021/09/08 04:29:59;;;;;;;;;;;16.40;54.50;;;;;;5043934;28;83472;-44
2021/09/08 04:32:25;;;;;;;;;;;16.40;53.90;;;;;;5040812;28;83058;-44
2021/09/08 04:34:50;;;;;;;;;;;16.30;53.80;;;;;;5045419;28;82931;-44
2021/09/08 04:37:16;;;;;;;;;;;16.30;53.80;;;;;;5044202;28;82086;-44
2021/09/08 04:39:43;;;;;;;;;;;16.30;53.90;;;;;;5045500;28;82540;-44
2021/09/08 04:42:09;;;;;;;;;;;16.30;53.80;;;;;;5043090;28;84793;-45
2021/09/08 04:44:34;;;;;;;;;;;16.30;53.80;;;;;;5042343;27;82030;-44
2021/09/08 04:47:00;;;;;;;;;;;16.30;53.90;;;;;;5043751;28;82103;-44
2021/09/08 04:49:25;;;;;;;;;;;16.30;53.90;;;;;;5045200;28;81402;-44
2021/09/08 04:51:51;;;;;;;;;;;16.30;53.80;;;;;;5046158;28;82234;-45
2021/09/08 04:54:16;;;;;;;;;;;16.30;53.90;;;;;;5042730;28;83832;-44
2021/09/08 04:56:42;;;;;;;;;;;16.30;53.90;;;;;;5043525;28;84472;-45
2021/09/08 04:59:08;;;;;;;;;;;16.30;54.00;;;;;;5042884;28;83331;-44
2021/09/08 05:01:33;;;;;;;;;;;16.30;53.90;;;;;;5043907;28;83322;-44
2021/09/08 05:03:59;;;;;;;;;;;16.30;53.90;;;;;;5045315;28;82156;-45
2021/09/08 05:06:24;;;;;;;;;;;16.30;53.90;;;;;;5044652;28;84107;-44
2021/09/08 05:08:50;;;;;;;;;;;16.30;53.80;;;;;;5041359;28;83730;-45
2021/09/08 05:11:15;;;;;;;;;;;16.20;53.80;;;;;;5041743;28;82127;-45
2021/09/08 05:13:41;;;;;;;;;;;16.20;53.90;;;;;;5041892;28;82055;-44
2021/09/08 05:16:07;;;;;;;;;;;16.20;54.00;;;;;;5040560;28;83382;-44
2021/09/08 05:18:32;;;;;;;;;;;16.20;54.00;;;;;;5046887;28;82080;-44
2021/09/08 05:20:58;;;;;;;;;;;16.20;54.00;;;;;;5044749;28;84129;-44
2021/09/08 05:23:24;;;;;;;;;;;16.20;54.10;;;;;;5044485;28;82185;-44
2021/09/08 05:25:49;;;;;;;;;;;16.20;54.20;;;;;;5041445;28;82955;-45
2021/09/08 05:28:15;;;;;;;;;;;16.20;54.00;;;;;;5041447;28;83062;-44
2021/09/08 05:30:40;;;;;;;;;;;16.20;53.90;;;;;;5042356;28;82124;-45
2021/09/08 05:33:06;;;;;;;;;;;16.20;54.00;;;;;;5041360;28;82096;-46
2021/09/08 05:35:31;;;;;;;;;;;16.20;54.10;;;;;;5041212;28;82647;-44
2021/09/08 05:37:57;;;;;;;;;;;16.20;54.10;;;;;;5043151;28;81361;-45
2021/09/08 05:40:22;;;;;;;;;;;16.20;54.10;;;;;;5045847;28;82090;-44
2021/09/08 05:42:48;;;;;;;;;;;16.10;54.20;;;;;;5042772;28;82113;-44
2021/09/08 05:45:13;;;;;;;;;;;16.20;54.20;;;;;;5043195;28;83094;-44
2021/09/08 05:47:39;;;;;;;;;;;16.20;54.20;;;;;;5044886;28;82146;-45
2021/09/08 05:50:05;;;;;;;;;;;16.10;54.20;;;;;;5042413;28;83661;-45
2021/09/08 05:52:30;;;;;;;;;;;16.10;54.10;;;;;;5040134;28;85765;-44
2021/09/08 05:54:56;;;;;;;;;;;16.10;54.10;;;;;;5039837;28;82664;-44
2021/09/08 05:57:21;;;;;;;;;;;16.20;54.20;;;;;;5041119;28;82127;-45
2021/09/08 05:59:47;;;;;;;;;;;16.10;54.30;;;;;;5042539;28;82089;-45
2021/09/08 06:02:12;;;;;;;;;;;16.20;54.10;;;;;;5046552;28;83426;-44
2021/09/08 06:04:38;;;;;;;;;;;16.20;54.00;;;;;;5045137;28;82091;-44
2021/09/08 06:07:03;;;;;;;;;;;16.20;54.00;;;;;;5041502;28;83785;-45
2021/09/08 06:09:30;;;;;;;;;;;16.20;54.00;;;;;;5039891;28;83029;-44
2021/09/08 06:11:56;;;;;;;;;;;16.10;54.10;;;;;;5040642;28;84986;-45
2021/09/08 06:14:22;;;;;;;;;;;16.10;54.30;;;;;;5040507;28;84587;-45
2021/09/08 06:16:47;;;;;;;;;;;16.10;54.30;;;;;;5041865;28;82251;-44
2021/09/08 06:19:13;;;;;;;;;;;16.10;54.30;;;;;;5043313;28;83093;-44
2021/09/08 06:21:38;;;;;;;;;;;16.10;54.30;;;;;;5047100;28;82553;-44
2021/09/08 06:24:04;;;;;;;;;;;16.10;54.30;;;;;;5044912;28;82148;-44
2021/09/08 06:26:30;;;;;;;;;;;16.20;54.20;;;;;;5043508;28;83849;-44
2021/09/08 06:28:55;;;;;;;;;;;16.20;54.10;;;;;;5042515;28;82130;-44
2021/09/08 06:31:21;;;;;;;;;;;16.20;54.20;;;;;;5042004;28;82221;-44
2021/09/08 06:33:48;;;;;;;;;;;16.10;54.30;;;;;;5041759;28;84532;-44
2021/09/08 06:36:14;;;;;;;;;;;16.10;54.30;;;;;;5042038;28;82075;-45
2021/09/08 06:38:39;;;;;;;;;;;16.10;54.40;;;;;;5042932;28;84244;-44
2021/09/08 06:41:05;;;;;;;;;;;16.10;54.40;;;;;;5044190;28;82948;-44
2021/09/08 06:43:30;;;;;;;;;;;16.10;54.40;;;;;;5044226;28;83036;-44
2021/09/08 06:45:56;;;;;;;;;;;16.10;54.60;;;;;;5039781;28;83681;-44
2021/09/08 06:48:21;;;;;;;;;;;16.10;54.50;;;;;;5039702;28;82093;-44
2021/09/08 06:50:47;;;;;;;;;;;16.10;54.70;;;;;;5041171;28;81349;-44
2021/09/08 06:53:13;;;;;;;;;;;16.10;54.70;;;;;;5041475;28;82641;-44
2021/09/08 06:55:38;;;;;;;;;;;16.10;54.70;;;;;;5042826;28;82166;-44
2021/09/08 06:58:04;;;;;;;;;;;16.20;54.60;;;;;;5043663;28;83062;-44
2021/09/08 07:00:30;;;;;;;;;;;16.20;54.60;;;;;;5042573;28;84604;-44
2021/09/08 07:02:55;;;;;;;;;;;16.10;54.70;;;;;;5039767;28;82962;-45
2021/09/08 07:05:21;;;;;;;;;;;16.20;54.70;;;;;;5042781;28;82299;-44
2021/09/08 07:07:47;;;;;;;;;;;16.20;54.60;;;;;;5042981;28;82114;-44
2021/09/08 07:10:12;;;;;;;;;;;16.20;54.60;;;;;;5044224;28;82089;-44
2021/09/08 07:12:38;;;;;;;;;;;16.20;54.60;;;;;;5041454;28;89545;-44
2021/09/08 07:15:04;;;;;;;;;;;16.10;54.80;;;;;;5043553;28;86430;-44
2021/09/08 07:17:29;;;;;;;;;;;16.10;55.00;;;;;;5042064;28;87213;-44
2021/09/08 07:19:55;;;;;;;;;;;16.10;55.00;;;;;;5041235;28;88223;-44
2021/09/08 07:22:20;;;;;;;;;;;16.00;55.20;;;;;;5039803;28;88060;-44
2021/09/08 07:24:46;;;;;;;;;;;16.10;55.20;;;;;;5040840;28;88551;-44
2021/09/08 07:27:11;;;;;;;;;;;16.10;55.00;;;;;;5044707;28;87912;-44
2021/09/08 07:29:37;;;;;;;;;;;16.10;54.70;;;;;;5043319;28;87742;-44
2021/09/08 07:32:05;;;;;;;;;;;16.10;54.80;;;;;;5041971;28;89497;-44
2021/09/08 07:34:31;;;;;;;;;;;16.20;54.90;;;;;;5042144;28;87179;-44
2021/09/08 07:36:56;;;;;;;;;;;16.10;54.80;;;;;;5043126;28;88129;-44
2021/09/08 07:39:22;;;;;;;;;;;16.10;54.80;;;;;;5042617;28;86400;-44
2021/09/08 07:41:47;;;;;;;;;;;16.20;54.70;;;;;;5039383;28;88131;-44
2021/09/08 07:44:13;;;;;;;;;;;16.20;54.80;;;;;;5039791;28;87555;-44
2021/09/08 07:46:39;;;;;;;;;;;16.10;54.80;;;;;;5039779;28;90325;-44
2021/09/08 07:49:04;;;;;;;;;;;16.10;55.00;;;;;;5045118;28;87224;-45
2021/09/08 07:51:30;;;;;;;;;;;16.10;55.00;;;;;;5042574;28;90047;-44
2021/09/08 07:53:56;;;;;;;;;;;16.10;54.80;;;;;;5041881;28;88763;-44
2021/09/08 07:56:21;;;;;;;;;;;16.10;55.00;;;;;;5039259;28;87927;-44
2021/09/08 07:58:47;;;;;;;;;;;16.10;54.90;;;;;;5038937;28;89311;-44
2021/09/08 08:01:12;;;;;;;;;;;16.10;54.70;;;;;;5040730;28;87166;-44
2021/09/08 08:03:38;;;;;;;;;;;16.10;54.80;;;;;;5041263;28;88073;-45
2021/09/08 08:06:03;;;;;;;;;;;16.10;54.70;;;;;;5039559;28;89466;-44
2021/09/08 08:08:29;;;;;;;;;;;16.10;54.70;;;;;;5039312;28;87111;-44
2021/09/08 08:10:54;;;;;;;;;;;16.10;54.50;;;;;;5040651;28;88880;-45
2021/09/08 08:13:20;;;;;;;;;;;16.20;54.70;;;;;;5039894;28;87130;-45
2021/09/08 08:15:45;;;;;;;;;;;16.20;54.50;;;;;;5041017;28;87182;-44
2021/09/08 08:18:11;;;;;;;;;;;16.20;54.50;;;;;;5040886;28;88177;-44
2021/09/08 08:20:37;;;;;;;;;;;16.20;54.40;;;;;;5042591;28;87824;-44
2021/09/08 08:23:02;;;;;;;;;;;16.20;54.30;;;;;;5039278;28;88437;-44
2021/09/08 08:25:28;;;;;;;;;;;16.20;54.30;;;;;;5038191;28;88978;-45
2021/09/08 08:27:55;;;;;;;;;;;16.20;54.30;;;;;;5039494;28;86414;-44
2021/09/08 08:30:21;;;;;;;;;;;16.20;54.80;;;;;;5041582;28;88249;-44
2021/09/08 08:32:47;;;;;;;;;;;16.20;54.10;;;;;;5039543;28;87108;-45
2021/09/08 08:35:12;;;;;;;;;;;16.20;53.90;;;;;;5040020;28;88191;-44
2021/09/08 08:37:38;;;;;;;;;;;16.10;54.10;;;;;;5041088;28;89558;-44
2021/09/08 08:40:04;;;;;;;;;;;16.10;54.00;;;;;;5042733;28;87120;-44
2021/09/08 08:42:31;;;;;;;;;;;16.20;53.90;;;;;;5042404;28;87473;-45
2021/09/08 08:44:56;;;;;;;;;;;16.20;53.80;;;;;;5042080;28;89092;-45
2021/09/08 08:47:22;;;;;;;;;;;16.20;53.80;;;;;;5040220;28;88750;-44
2021/09/08 08:49:48;;;;;;;;;;;16.20;53.80;;;;;;5037812;28;87250;-44
2021/09/08 08:52:14;;;;;;;;;;;16.20;54.00;;;;;;5040894;28;86540;-44
2021/09/08 08:54:39;;;;;;;;;;;16.20;53.90;;;;;;5038808;28;88086;-45
2021/09/08 08:57:11;;;;;;;;;;;16.20;53.80;;;;;;5037818;28;87862;-44
2021/09/08 08:59:37;;;;;;;;;;;16.20;53.90;;;;;;5038103;28;89599;-44
2021/09/08 09:02:23;;;;;;;;;;;16.20;53.80;;;;;;5037659;28;88011;-45
2021/09/08 09:04:49;;;;;;;;;;;16.20;53.80;;;;;;5039078;28;89091;-46
2021/09/08 09:07:25;;;;;;;;;;;16.20;53.80;;;;;;5039428;28;87128;-44
2021/09/08 09:09:58;;;;;;;;;;;16.20;53.90;;;;;;5039748;28;87509;-44
2021/09/08 09:12:25;;;;;;;;;;;16.10;53.80;;;;;;5037754;28;87149;-45
2021/09/08 09:14:51;;;;;;;;;;;16.20;53.80;;;;;;5040778;28;87794;-45
2021/09/08 09:17:18;;;;;;;;;;;16.20;53.80;;;;;;5038269;28;89260;-44
2021/09/08 09:19:47;;;;;;;;;;;16.20;53.80;;;;;;5037436;28;88288;-45
2021/09/08 09:22:15;;;;;;;;;;;16.20;53.80;;;;;;5040380;28;87116;-44
2021/09/08 09:24:40;;;;;;;;;;;16.20;53.90;;;;;;5036758;28;88614;-44
2021/09/08 09:27:09;;;;;;;;;;;16.20;53.90;;;;;;5038695;28;87189;-44
2021/09/08 09:29:35;;;;;;;;;;;16.20;53.80;;;;;;5041813;28;87163;-45
2021/09/08 09:32:04;;;;;;;;;;;16.20;54.00;;;;;;5039325;28;88133;-44
2021/09/08 09:34:30;;;;;;;;;;;16.20;54.00;;;;;;5038151;28;87172;-44
2021/09/08 09:36:57;;;;;;;;;;;16.30;54.00;;;;;;5041415;28;87413;-44
2021/09/08 09:39:27;;;;;;;;;;;16.30;54.10;;;;;;5037855;28;87143;-45
2021/09/08 09:41:52;;;;;;;;;;;16.20;54.10;;;;;;5040314;28;87130;-45
2021/09/08 09:44:18;;;;;;;;;;;16.20;54.20;;;;;;5039473;28;88422;-44
2021/09/08 09:46:45;;;;;;;;;;;16.20;54.30;;;;;;5040852;28;87167;-44
2021/09/08 09:49:11;;;;;;;;;;;16.20;54.40;;;;;;5039779;28;88104;-44
2021/09/08 09:51:37;;;;;;;;;;;16.20;54.50;;;;;;5039144;28;88118;-45
2021/09/08 09:54:02;;;;;;;;;;;16.30;54.40;;;;;;5040035;28;87133;-45
2021/09/08 09:56:28;;;;;;;;;;;16.30;54.30;;;;;;5041285;28;87135;-45
2021/09/08 09:58:54;;;;;;;;;;;16.30;54.20;;;;;;5042527;28;88362;-45
2021/09/08 10:01:20;;;;;;;;;;;16.30;54.20;;;;;;5036736;28;89017;-44
2021/09/08 10:03:46;;;;;;;;;;;16.30;54.20;;;;;;5036984;28;89738;-44
2021/09/08 10:06:12;;;;;;;;;;;16.30;54.20;;;;;;5038479;28;86511;-44
2021/09/08 10:08:40;;;;;;;;;;;16.30;54.20;;;;;;5038719;28;87112;-45
2021/09/08 10:11:07;;;;;;;;;;;16.30;54.10;;;;;;5038569;28;87862;-45
2021/09/08 10:13:41;;;;;;;;;;;16.30;54.10;;;;;;5040779;28;88050;-44
2021/09/08 10:16:07;;;;;;;;;;;16.30;53.80;;;;;;5037595;28;87118;-44
2021/09/08 10:18:34;;;;;;;;;;;16.30;53.80;;;;;;5037106;27;88694;-44
2021/09/08 10:21:05;;;;;;;;;;;16.30;53.80;;;;;;5024730;27;87109;-45
2021/09/08 10:23:42;;;;;;;;;;;16.30;53.80;;;;;;5040959;28;90077;-45
2021/09/08 10:26:12;;;;;;;;;;;16.40;53.50;;;;;;5040647;28;87169;-45
2021/09/08 10:28:39;;;;;;;;;;;16.40;53.30;;;;;;5037495;28;87994;-45
2021/09/08 10:31:04;;;;;;;;;;;16.40;53.00;;;;;;5040013;28;88049;-45
2021/09/08 10:33:30;;;;;;;;;;;16.50;52.90;;;;;;5037552;28;87910;-45
2021/09/08 10:35:56;;;;;;;;;;;16.50;52.60;;;;;;5036416;28;87337;-44
2021/09/08 10:38:23;;;;;;;;;;;16.40;52.30;;;;;;5036456;28;89230;-44
2021/09/08 10:40:50;;;;;;;;;;;16.50;52.10;;;;;;5042509;28;88690;-44
2021/09/08 10:43:16;;;;;;;;;;;16.40;51.80;;;;;;5038441;28;89954;-45
2021/09/08 10:45:52;;;;;;;;;;;16.50;52.00;;;;;;5039321;28;87794;-46
2021/09/08 10:48:36;;;;;;;;;;;16.50;51.50;;;;;;5040615;28;89109;-45
2021/09/08 10:51:02;;;;;;;;;;;16.50;51.70;;;;;;5035683;27;88953;-44
2021/09/08 10:53:28;;;;;;;;;;;16.50;51.20;;;;;;5036621;28;87147;-45
2021/09/08 10:55:54;;;;;;;;;;;16.50;51.30;;;;;;5037516;28;88519;-44
2021/09/08 10:58:20;;;;;;;;;;;16.50;51.20;;;;;;5037110;28;89956;-44
2021/09/08 11:00:46;;;;;;;;;;;16.50;51.20;;;;;;5038473;28;87157;-45
2021/09/08 11:03:14;;;;;;;;;;;16.50;51.30;;;;;;5040183;28;89004;-44
2021/09/08 11:05:52;;;;;;;;;;;16.60;51.00;;;;;;5037642;28;88912;-45
2021/09/08 11:08:20;;;;;;;;;;;16.50;51.20;;;;;;5040711;28;87651;-45
2021/09/08 11:10:46;;;;;;;;;;;16.60;51.10;;;;;;5037297;28;89846;-45
2021/09/08 11:13:11;;;;;;;;;;;16.60;51.20;;;;;;5037859;28;87192;-44
2021/09/08 11:15:38;;;;;;;;;;;16.60;50.90;;;;;;5039129;28;87242;-44
2021/09/08 11:18:06;;;;;;;;;;;16.60;50.80;;;;;;5038560;28;87656;-45
2021/09/08 11:20:32;;;;;;;;;;;16.60;51.10;;;;;;5037396;28;86440;-44
2021/09/08 11:23:00;;;;;;;;;;;16.60;51.30;;;;;;5037952;28;87123;-45
2021/09/08 11:25:29;;;;;;;;;;;16.70;51.20;;;;;;5038776;28;88593;-45
2021/09/08 11:27:55;;;;;;;;;;;16.70;51.30;;;;;;5037827;28;88119;-44
2021/09/08 11:30:20;;;;;;;;;;;16.70;51.30;;;;;;5038997;28;88695;-46
2021/09/08 11:32:50;;;;;;;;;;;16.70;51.40;;;;;;5039967;28;88281;-45
2021/09/08 11:35:29;;;;;;;;;;;16.70;51.50;;;;;;5036345;28;88902;-45
2021/09/08 11:37:54;;;;;;;;;;;16.70;51.20;;;;;;5039832;28;88470;-46
2021/09/08 11:40:20;;;;;;;;;;;16.70;51.20;;;;;;5037421;28;88031;-46
2021/09/08 11:42:45;;;;;;;;;;;16.70;51.50;;;;;;5035828;28;87564;-46
2021/09/08 11:45:24;;;;;;;;;;;16.70;51.40;;;;;;5037243;28;87327;-46
2021/09/08 11:47:49;;;;;;;;;;;16.70;51.60;;;;;;5041522;28;88006;-45
2021/09/08 11:50:15;;;;;;;;;;;16.70;51.50;;;;;;5037312;28;88568;-45
2021/09/08 11:52:40;;;;;;;;;;;16.80;51.50;;;;;;5034766;28;88240;-46
2021/09/08 11:55:06;;;;;;;;;;;16.70;51.60;;;;;;5038411;28;88681;-49
2021/09/08 11:57:31;;;;;;;;;;;16.80;51.90;;;;;;5039529;28;87988;-45
2021/09/08 11:59:57;;;;;;;;;;;16.80;52.00;;;;;;5040664;28;87123;-46
2021/09/08 12:02:22;;;;;;;;;;;16.80;51.90;;;;;;5040175;28;87208;-47
2021/09/08 12:04:48;;;;;;;;;;;16.80;51.70;;;;;;5038800;28;87925;-45
2021/09/08 12:07:14;;;;;;;;;;;16.80;51.70;;;;;;5039162;28;87071;-47
2021/09/08 12:09:40;;;;;;;;;;;16.90;51.80;;;;;;5043574;28;86516;-45
2021/09/08 12:12:10;;;;;;;;;;;16.90;52.00;;;;;;5040235;28;87132;-46
2021/09/08 12:14:35;;;;;;;;;;;16.90;51.80;;;;;;5042645;28;88983;-46
2021/09/08 12:17:07;;;;;;;;;;;16.90;51.80;;;;;;5041928;28;90840;-46
2021/09/08 12:19:37;;;;;;;;;;;16.90;51.90;;;;;;5041808;28;87165;-47
2021/09/08 12:22:04;;;;;;;;;;;16.90;52.00;;;;;;5042244;28;88832;-46
2021/09/08 12:24:31;;;;;;;;;;;17.00;52.10;;;;;;5041427;28;87885;-50
2021/09/08 12:26:57;;;;;;;;;;;17.00;52.10;;;;;;5040704;28;87102;-46
2021/09/08 12:29:23;;;;;;;;;;;17.00;52.30;;;;;;5043199;28;87651;-46
2021/09/08 12:32:00;;;;;;;;;;;17.00;52.30;;;;;;5040488;28;87129;-50
2021/09/08 12:34:42;;;;;;;;;;;16.90;52.50;;;;;;5038651;28;87417;-48
2021/09/08 12:37:08;;;;;;;;;;;16.90;52.60;;;;;;5038432;28;89248;-45
2021/09/08 12:39:40;;;;;;;;;;;17.00;52.70;;;;;;5038307;28;87142;-46
2021/09/08 12:42:06;;;;;;;;;;;17.00;52.70;;;;;;5041435;28;88071;-46
2021/09/08 12:44:33;;;;;;;;;;;17.00;52.80;;;;;;5041689;28;87573;-45
2021/09/08 12:47:06;;;;;;;;;;;17.00;52.80;;;;;;5042215;28;87126;-47
2021/09/08 12:49:32;;;;;;;;;;;17.00;52.90;;;;;;5039885;28;88758;-45
2021/09/08 12:51:58;;;;;;;;;;;17.10;53.10;;;;;;5042740;28;89163;-46
2021/09/08 12:54:23;;;;;;;;;;;17.00;53.00;;;;;;5040736;28;87881;-46
2021/09/08 12:56:50;;;;;;;;;;;17.10;53.00;;;;;;5040960;28;88167;-46
2021/09/08 12:59:24;;;;;;;;;;;17.10;53.30;;;;;;5040610;28;86363;-49
2021/09/08 13:01:51;;;;;;;;;;;17.10;53.10;;;;;;5041977;28;88013;-46
2021/09/08 13:04:17;;;;;;;;;;;17.20;53.10;;;;;;5041347;27;88364;-45
2021/09/08 13:06:42;;;;;;;;;;;17.20;53.10;;;;;;5041374;28;88101;-45
2021/09/08 13:09:08;;;;;;;;;;;17.20;53.20;;;;;;5040341;28;89057;-45
2021/09/08 13:11:34;;;;;;;;;;;17.20;53.10;;;;;;5040470;28;89386;-45
2021/09/08 13:13:59;;;;;;;;;;;17.20;53.20;;;;;;5044823;28;87231;-45
2021/09/08 13:16:25;;;;;;;;;;;17.20;53.30;;;;;;5041469;28;88211;-45
2021/09/08 13:18:50;;;;;;;;;;;17.20;53.40;;;;;;5038657;28;88767;-45
2021/09/08 13:21:17;;;;;;;;;;;17.20;53.40;;;;;;5037286;28;87391;-45
2021/09/08 13:23:43;;;;;;;;;;;17.20;54.20;;;;;;5041784;28;88485;-46
2021/09/08 13:26:10;;;;;;;;;;;17.20;53.50;;;;;;5041479;28;87091;-45
2021/09/08 13:28:35;;;;;;;;;;;17.30;53.40;;;;;;5039003;28;88963;-46
2021/09/08 13:31:01;;;;;;;;;;;17.30;53.40;;;;;;5037966;28;90699;-45
2021/09/08 13:33:27;;;;;;;;;;;17.30;53.40;;;;;;5038333;28;87091;-45
2021/09/08 13:35:52;;;;;;;;;;;17.40;53.70;;;;;;5040716;28;89143;-45
2021/09/08 13:38:18;;;;;;;;;;;17.40;53.50;;;;;;5038003;28;87117;-45
2021/09/08 13:40:43;;;;;;;;;;;17.40;53.60;;;;;;5037504;28;87235;-45
2021/09/08 13:43:09;;;;;;;;;;;17.30;53.60;;;;;;5036542;28;87123;-45
2021/09/08 13:45:34;;;;;;;;;;;17.40;53.70;;;;;;5037697;28;87108;-45
2021/09/08 13:48:00;;;;;;;;;;;17.30;53.70;;;;;;5039404;28;87992;-45
2021/09/08 13:50:25;;;;;;;;;;;17.40;53.60;;;;;;5038494;28;87882;-45
2021/09/08 13:52:51;;;;;;;;;;;17.30;53.80;;;;;;5039896;28;87188;-45
2021/09/08 13:55:16;;;;;;;;;;;17.30;54.30;;;;;;5039475;28;88081;-45
2021/09/08 13:57:42;;;;;;;;;;;17.30;53.80;;;;;;5042600;28;89556;-45
2021/09/08 14:00:08;;;;;;;;;;;17.40;53.70;;;;;;5039379;28;88644;-45
2021/09/08 14:02:33;;;;;;;;;;;17.50;53.60;;;;;;5038646;28;89173;-45
2021/09/08 14:04:59;;;;;;;;;;;17.40;53.60;;;;;;5040382;28;87098;-45
2021/09/08 14:07:24;;;;;;;;;;;17.50;53.60;;;;;;5041328;28;88265;-45
2021/09/08 14:09:50;;;;;;;;;;;17.50;53.60;;;;;;5037770;28;89529;-45